Time;durP1;ratioP1;P1;durP2;ratioP2;P2;SDS_P1;SDS_P2;PMS_P1;PMS_P2;Temp;Humidity;BMP_temperature;BMP_pressure;BME280_temperature;BME280_humidity;BME280_pressure;Samples;Min_cycle;Max_cycle;Signal;HPM_P1;HPM_P2
2022/04/29 00:01:57;;;;;;;3.37;2.53;;;23.40;36.40;;;;;;5032151;28;20490;-68
2022/04/29 00:04:25;;;;;;;3.07;2.70;;;23.40;36.40;;;;;;5030880;28;20530;-70
2022/04/29 00:06:51;;;;;;;3.25;2.85;;;23.40;36.40;;;;;;5032057;28;20395;-68
2022/04/29 00:09:17;;;;;;;3.47;2.60;;;23.50;36.40;;;;;;5031771;28;20390;-68
2022/04/29 00:11:44;;;;;;;3.28;2.78;;;23.50;36.50;;;;;;5031997;28;20407;-70
2022/04/29 00:14:10;;;;;;;3.63;2.70;;;23.50;36.50;;;;;;5031889;28;20733;-71
2022/04/29 00:16:35;;;;;;;3.00;2.67;;;23.50;36.40;;;;;;5031377;28;20414;-71
2022/04/29 00:19:01;;;;;;;3.58;2.78;;;23.50;36.40;;;;;;5031796;28;20427;-70
2022/04/29 00:21:27;;;;;;;3.53;2.53;;;23.50;36.30;;;;;;5030523;28;20475;-70
2022/04/29 00:23:52;;;;;;;3.25;2.65;;;23.60;36.30;;;;;;5031719;28;20483;-70
2022/04/29 00:26:18;;;;;;;2.85;2.40;;;23.60;36.30;;;;;;5031533;28;20397;-69
2022/04/29 00:28:44;;;;;;;3.17;2.60;;;23.50;36.80;;;;;;5031514;28;20412;-71
2022/04/29 00:31:09;;;;;;;3.00;2.70;;;23.50;36.20;;;;;;5030430;28;20431;-71
2022/04/29 00:33:35;;;;;;;3.57;2.73;;;23.60;36.20;;;;;;5031594;28;20891;-71
2022/04/29 00:36:00;;;;;;;3.55;2.90;;;23.60;36.10;;;;;;5031627;28;20436;-68
2022/04/29 00:38:26;;;;;;;2.97;2.67;;;23.60;36.10;;;;;;5031029;28;20895;-66
2022/04/29 00:40:52;;;;;;;3.00;2.70;;;23.60;36.10;;;;;;5031516;28;20383;-67
2022/04/29 00:43:17;;;;;;;3.85;2.97;;;23.60;36.10;;;;;;5031508;28;20399;-66
2022/04/29 00:45:43;;;;;;;3.10;2.80;;;23.60;36.10;;;;;;5031295;28;20379;-66
2022/04/29 00:48:09;;;;;;;3.60;2.60;;;23.60;36.00;;;;;;5031555;28;20399;-65
2022/04/29 00:50:36;;;;;;;3.23;2.90;;;23.60;36.00;;;;;;5029619;28;20539;-65
2022/04/29 00:53:03;;;;;;;3.50;2.92;;;23.60;36.00;;;;;;5031480;28;20883;-65
2022/04/29 00:55:35;;;;;;;4.82;2.92;;;23.60;35.90;;;;;;5031297;28;20395;-64
2022/04/29 00:58:21;;;;;;;3.38;3.08;;;23.60;35.90;;;;;;5031460;28;20411;-65
2022/04/29 01:00:47;;;;;;;4.28;3.20;;;23.60;35.90;;;;;;5030663;28;20403;-65
2022/04/29 01:03:14;;;;;;;4.97;3.88;;;23.60;35.90;;;;;;5031313;28;20379;-65
2022/04/29 01:05:41;;;;;;;5.00;3.80;;;23.60;35.90;;;;;;5031261;28;20390;-64
2022/04/29 01:08:08;;;;;;;5.70;3.92;;;23.60;35.90;;;;;;5031282;28;20395;-69
2022/04/29 01:10:34;;;;;;;6.60;4.20;;;23.60;35.90;;;;;;5030457;28;20794;-65
2022/04/29 01:13:02;;;;;;;6.23;4.43;;;23.60;35.90;;;;;;5031269;28;20422;-65
2022/04/29 01:15:28;;;;;;;5.30;4.22;;;23.60;35.90;;;;;;5031139;28;20403;-66
2022/04/29 01:17:58;;;;;;;6.40;4.32;;;23.60;35.90;;;;;;5031085;28;20453;-64
2022/04/29 01:20:29;;;;;;;6.75;4.57;;;23.50;35.80;;;;;;5030812;28;20403;-64
2022/04/29 01:22:55;;;;;;;6.28;4.35;;;23.60;35.80;;;;;;5031122;28;20386;-66
2022/04/29 01:25:21;;;;;;;7.00;4.70;;;23.50;35.80;;;;;;5031138;28;20402;-67
2022/04/29 01:27:46;;;;;;;5.80;4.45;;;23.50;35.80;;;;;;5031058;28;20737;-65
2022/04/29 01:30:15;;;;;;;6.03;4.40;;;23.60;36.10;;;;;;5031062;28;20407;-66
2022/04/29 01:32:41;;;;;;;6.97;4.25;;;23.60;35.80;;;;;;5029272;28;20758;-65
2022/04/29 01:35:09;;;;;;;5.43;4.10;;;23.60;35.80;;;;;;5031057;28;20391;-65
2022/04/29 01:37:34;;;;;;;6.80;4.45;;;23.50;35.80;;;;;;5030853;28;20391;-66
2022/04/29 01:40:00;;;;;;;5.78;4.05;;;23.50;35.80;;;;;;5031086;28;20475;-65
2022/04/29 01:42:26;;;;;;;6.30;4.23;;;23.60;35.80;;;;;;5030652;28;20921;-65
2022/04/29 01:44:53;;;;;;;5.68;4.15;;;23.50;35.80;;;;;;5030689;28;20399;-66
2022/04/29 01:47:19;;;;;;;5.93;4.00;;;23.50;35.80;;;;;;5030820;28;20890;-66
2022/04/29 01:49:44;;;;;;;6.27;4.23;;;23.50;35.80;;;;;;5030944;28;20395;-71
2022/04/29 01:52:10;;;;;;;6.38;3.92;;;23.50;35.80;;;;;;5030881;28;21038;-71
2022/04/29 01:54:37;;;;;;;5.80;4.20;;;23.50;35.80;;;;;;5030236;28;20383;-71
2022/04/29 01:57:03;;;;;;;5.78;4.20;;;23.50;35.80;;;;;;5029651;28;20391;-71
2022/04/29 01:59:30;;;;;;;6.20;4.00;;;23.50;35.80;;;;;;5033691;28;20411;-71
2022/04/29 02:01:58;;;;;;;6.25;4.05;;;23.50;35.80;;;;;;5034466;28;20470;-71
2022/04/29 02:04:24;;;;;;;5.95;4.18;;;23.50;35.80;;;;;;5034063;28;20395;-70
2022/04/29 02:06:50;;;;;;;6.78;4.05;;;23.50;35.80;;;;;;5034032;28;20382;-71
2022/04/29 02:09:15;;;;;;;5.75;4.10;;;23.50;35.70;;;;;;5033980;28;20391;-71
2022/04/29 02:12:03;;;;;;;6.45;4.20;;;23.50;35.70;;;;;;5032966;28;20474;-71
2022/04/29 02:14:28;;;;;;;6.38;4.18;;;23.50;35.70;;;;;;5033722;28;20465;-71
2022/04/29 02:16:55;;;;;;;5.47;3.70;;;23.50;35.70;;;;;;5033828;28;20799;-72
2022/04/29 02:19:22;;;;;;;5.53;3.80;;;23.50;35.70;;;;;;5033915;28;20909;-71
2022/04/29 02:21:48;;;;;;;7.18;4.10;;;23.40;35.70;;;;;;5033939;28;20387;-71
2022/04/29 02:24:14;;;;;;;6.95;3.80;;;23.40;35.60;;;;;;5033946;28;20926;-70
2022/04/29 02:26:40;;;;;;;6.07;3.70;;;23.40;35.60;;;;;;5031983;28;20395;-66
2022/04/29 02:29:07;;;;;;;5.50;3.70;;;23.40;35.60;;;;;;5032566;28;20926;-69
2022/04/29 02:31:33;;;;;;;5.80;3.65;;;23.50;35.70;;;;;;5032416;28;20724;-66
2022/04/29 02:33:58;;;;;;;6.32;3.60;;;23.50;35.70;;;;;;5032543;28;20402;-65
2022/04/29 02:36:24;;;;;;;5.40;3.67;;;23.40;35.60;;;;;;5033707;28;20391;-67
2022/04/29 02:38:50;;;;;;;5.80;3.97;;;23.40;35.70;;;;;;5032121;28;20423;-65
2022/04/29 02:41:15;;;;;;;5.53;3.80;;;23.40;35.60;;;;;;5033624;28;20486;-67
2022/04/29 02:43:42;;;;;;;5.13;3.60;;;23.40;35.70;;;;;;5033576;28;20427;-66
2022/04/29 02:46:08;;;;;;;6.65;3.60;;;23.40;35.70;;;;;;5033600;28;20391;-67
2022/04/29 02:48:33;;;;;;;5.00;3.60;;;23.40;35.70;;;;;;5031710;28;20742;-66
2022/04/29 02:50:59;;;;;;;5.50;3.60;;;23.40;35.60;;;;;;5033495;28;20391;-66
2022/04/29 02:53:25;;;;;;;6.27;3.83;;;23.40;35.60;;;;;;5033302;28;20402;-66
2022/04/29 02:55:51;;;;;;;6.55;3.88;;;23.40;35.60;;;;;;5033397;28;20466;-66
2022/04/29 02:58:16;;;;;;;4.30;3.50;;;23.40;35.60;;;;;;5033265;28;20407;-69
2022/04/29 03:00:42;;;;;;;4.80;3.42;;;23.40;35.80;;;;;;5032860;28;20406;-68
2022/04/29 03:03:08;;;;;;;5.13;3.70;;;23.40;35.70;;;;;;5033205;28;20384;-69
2022/04/29 03:05:34;;;;;;;4.85;3.65;;;23.40;35.60;;;;;;5031884;28;20399;-66
2022/04/29 03:08:00;;;;;;;5.15;3.30;;;23.30;35.50;;;;;;5031891;28;20926;-66
2022/04/29 03:10:25;;;;;;;5.20;3.57;;;23.30;35.50;;;;;;5032717;28;20451;-66
2022/04/29 03:12:51;;;;;;;5.00;3.40;;;23.40;35.60;;;;;;5032540;28;20795;-67
2022/04/29 03:15:18;;;;;;;5.53;3.45;;;23.30;35.60;;;;;;5032981;28;20390;-66
2022/04/29 03:20:34;;;;;;;4.70;3.33;;;23.40;35.70;;;;;;5032657;28;20446;-66
2022/04/29 03:22:59;;;;;;;4.63;3.20;;;23.30;35.60;;;;;;5031616;28;20395;-67
2022/04/29 03:25:25;;;;;;;4.65;3.22;;;23.30;35.60;;;;;;5031571;28;20401;-67
2022/04/29 03:27:51;;;;;;;4.10;3.10;;;23.30;35.60;;;;;;5031554;28;20395;-65
2022/04/29 03:30:16;;;;;;;4.32;3.28;;;23.30;35.60;;;;;;5032749;28;20402;-65
2022/04/29 03:32:53;;;;;;;4.63;3.50;;;23.30;35.60;;;;;;5032178;28;20415;-70
2022/04/29 03:35:20;;;;;;;4.47;3.42;;;23.30;35.60;;;;;;5031407;28;20417;-65
2022/04/29 03:37:45;;;;;;;4.18;3.22;;;23.30;35.60;;;;;;5032462;28;20871;-66
2022/04/29 03:40:13;;;;;;;5.50;3.20;;;23.30;35.60;;;;;;5032548;28;20410;-66
2022/04/29 03:42:39;;;;;;;4.43;3.00;;;23.30;35.70;;;;;;5031958;28;20387;-65
2022/04/29 03:45:06;;;;;;;4.22;3.03;;;23.30;35.60;;;;;;5032398;28;20395;-65
2022/04/29 03:47:31;;;;;;;4.10;3.03;;;23.30;35.60;;;;;;5032539;28;20411;-65
2022/04/29 03:49:57;;;;;;;4.00;3.00;;;23.20;35.60;;;;;;5032342;28;20930;-66
2022/04/29 03:52:23;;;;;;;5.45;3.30;;;23.20;35.50;;;;;;5032196;28;20522;-66
2022/04/29 03:54:48;;;;;;;4.30;3.08;;;23.30;35.60;;;;;;5031752;28;20403;-65
2022/04/29 03:57:14;;;;;;;4.20;3.13;;;23.20;35.50;;;;;;5032167;28;20399;-65
2022/04/29 03:59:40;;;;;;;3.83;3.10;;;23.20;35.60;;;;;;5032000;28;20413;-65
2022/04/29 04:02:05;;;;;;;4.25;3.13;;;23.20;35.60;;;;;;5032184;28;20391;-67
2022/04/29 04:04:31;;;;;;;4.50;3.10;;;23.20;35.60;;;;;;5031769;28;20402;-65
2022/04/29 04:07:01;;;;;;;4.65;3.17;;;23.20;35.60;;;;;;5031757;28;20946;-65
2022/04/29 04:09:27;;;;;;;4.18;3.03;;;23.20;35.60;;;;;;5031829;28;20466;-65
2022/04/29 04:11:53;;;;;;;5.53;3.17;;;23.20;35.60;;;;;;5032039;28;20930;-65
2022/04/29 04:14:18;;;;;;;4.63;3.20;;;23.20;35.60;;;;;;5031830;28;20490;-66
2022/04/29 04:16:45;;;;;;;5.60;2.97;;;23.20;35.50;;;;;;5031368;28;20379;-65
2022/04/29 04:19:11;;;;;;;4.47;3.03;;;23.20;35.50;;;;;;5031790;28;20423;-65
2022/04/29 04:21:36;;;;;;;4.10;2.95;;;23.20;35.60;;;;;;5031338;28;20478;-71
2022/04/29 04:24:03;;;;;;;3.85;2.90;;;23.20;35.50;;;;;;5031791;28;20802;-65
2022/04/29 04:26:28;;;;;;;3.75;2.97;;;23.20;35.40;;;;;;5031701;28;20458;-65
2022/04/29 04:28:54;;;;;;;3.90;3.00;;;23.20;35.40;;;;;;5031241;28;20495;-65
2022/04/29 04:31:21;;;;;;;4.80;3.27;;;23.20;35.40;;;;;;5048780;28;20753;-65
2022/04/29 04:33:48;;;;;;;4.33;3.17;;;23.20;35.40;;;;;;5071073;28;20432;-65
2022/04/29 04:36:13;;;;;;;4.32;3.20;;;23.20;35.50;;;;;;5071656;28;20744;-69
2022/04/29 04:38:39;;;;;;;3.70;2.90;;;23.20;35.50;;;;;;5070947;28;20925;-66
2022/04/29 04:41:07;;;;;;;4.65;3.00;;;23.20;35.50;;;;;;5070183;28;20399;-65
2022/04/29 04:43:32;;;;;;;3.95;3.00;;;23.10;35.50;;;;;;5071437;28;20483;-67
2022/04/29 04:45:58;;;;;;;4.22;2.95;;;23.10;35.80;;;;;;5061064;28;20477;-65
2022/04/29 04:48:24;;;;;;;5.03;2.57;;;23.10;35.70;;;;;;5043392;28;20390;-66
2022/04/29 04:50:49;;;;;;;3.88;3.08;;;23.10;35.70;;;;;;5041717;28;20394;-66
2022/04/29 04:53:15;;;;;;;3.70;2.93;;;23.10;35.70;;;;;;5043998;28;20385;-65
2022/04/29 04:55:41;;;;;;;3.80;2.90;;;23.20;35.70;;;;;;5039131;28;20414;-65
2022/04/29 04:58:08;;;;;;;3.88;3.03;;;23.20;35.70;;;;;;5031616;28;20771;-65
2022/04/29 05:00:33;;;;;;;3.88;3.17;;;23.20;36.40;;;;;;5031052;28;20395;-65
2022/04/29 05:02:59;;;;;;;3.60;2.90;;;23.20;35.90;;;;;;5031125;28;20426;-71
2022/04/29 05:05:25;;;;;;;4.32;2.80;;;23.30;36.30;;;;;;5031122;28;20409;-67
2022/04/29 05:07:50;;;;;;;9.20;3.00;;;23.30;35.70;;;;;;5031223;28;20395;-66
2022/04/29 05:10:18;;;;;;;5.72;2.90;;;23.20;35.70;;;;;;5031064;28;20903;-65
2022/04/29 05:12:46;;;;;;;5.80;2.95;;;23.20;35.70;;;;;;5030718;28;20430;-67
2022/04/29 05:15:13;;;;;;;5.13;2.92;;;23.20;35.70;;;;;;5031026;28;20402;-67
2022/04/29 05:17:42;;;;;;;4.47;3.00;;;23.20;35.70;;;;;;5031204;28;20486;-70
2022/04/29 05:20:10;;;;;;;4.68;2.92;;;23.20;35.80;;;;;;5031217;28;20410;-71
2022/04/29 05:22:36;;;;;;;5.57;2.72;;;23.30;35.90;;;;;;5030942;28;20387;-70
2022/04/29 05:25:02;;;;;;;7.05;3.13;;;23.30;36.00;;;;;;5030829;28;20398;-65
2022/04/29 05:27:28;;;;;;;5.93;3.00;;;23.20;35.80;;;;;;5031122;28;20466;-70
2022/04/29 05:29:54;;;;;;;6.82;3.10;;;23.30;35.80;;;;;;5031089;28;20488;-69
2022/04/29 05:32:20;;;;;;;5.40;3.03;;;23.30;36.00;;;;;;5030978;28;20401;-70
2022/04/29 05:34:47;;;;;;;7.07;3.00;;;23.30;35.70;;;;;;5032957;28;20399;-70
2022/04/29 05:37:13;;;;;;;3.88;2.75;;;23.30;35.90;;;;;;5034808;28;20383;-67
2022/04/29 05:42:24;;;;;;;4.15;2.90;;;23.40;36.60;;;;;;5035102;28;20733;-71
2022/04/29 05:44:50;;;;;;;3.63;2.60;;;23.50;36.40;;;;;;5041282;28;20404;-69
2022/04/29 05:47:16;;;;;;;4.70;2.83;;;23.50;36.20;;;;;;5052701;28;20398;-70
2022/04/29 05:49:41;;;;;;;6.65;2.70;;;23.40;36.20;;;;;;5054337;28;20394;-71
2022/04/29 05:52:08;;;;;;;6.17;2.67;;;23.40;36.10;;;;;;5054225;28;20393;-70
2022/04/29 05:54:35;;;;;;;7.80;2.72;;;23.40;36.10;;;;;;5054391;28;20421;-63
2022/04/29 05:57:02;;;;;;;6.55;2.80;;;23.40;36.00;;;;;;5053603;28;20394;-64
2022/04/29 05:59:29;;;;;;;5.72;2.83;;;23.40;35.40;;;;;;5053957;28;20425;-67
2022/04/29 06:01:55;;;;;;;5.28;2.53;;;23.30;35.30;;;;;;5054010;28;20392;-69
2022/04/29 06:04:21;;;;;;;7.40;2.97;;;23.30;35.20;;;;;;5054000;28;20385;-70
2022/04/29 06:06:47;;;;;;;5.95;2.75;;;23.30;35.00;;;;;;5053086;28;20447;-70
2022/04/29 06:09:13;;;;;;;6.30;2.60;;;23.20;35.00;;;;;;5042042;28;20391;-68
2022/04/29 06:11:39;;;;;;;6.20;2.78;;;23.20;35.00;;;;;;5037669;28;20441;-69
2022/04/29 06:14:04;;;;;;;6.18;2.65;;;23.20;35.20;;;;;;5034054;28;20391;-69
2022/04/29 06:16:30;;;;;;;4.33;2.60;;;23.20;35.10;;;;;;5033993;28;20444;-68
2022/04/29 06:18:56;;;;;;;5.20;2.73;;;23.30;35.20;;;;;;5040170;28;20408;-69
2022/04/29 06:21:21;;;;;;;5.68;2.60;;;23.20;35.40;;;;;;5053359;28;20390;-69
2022/04/29 06:23:48;;;;;;;5.68;2.60;;;23.30;35.50;;;;;;5053790;28;20870;-67
2022/04/29 06:26:14;;;;;;;8.35;3.08;;;23.30;35.80;;;;;;5047896;28;20393;-67
2022/04/29 06:28:40;;;;;;;4.78;2.60;;;23.30;35.70;;;;;;5053423;28;20828;-68
2022/04/29 06:31:06;;;;;;;5.30;2.60;;;23.30;36.00;;;;;;5049817;28;20480;-70
2022/04/29 06:33:33;;;;;;;5.03;2.67;;;23.40;38.60;;;;;;5033646;28;20395;-69
2022/04/29 06:35:59;;;;;;;5.65;2.40;;;23.40;37.50;;;;;;5033664;28;20378;-67
2022/04/29 06:38:25;;;;;;;5.15;2.63;;;23.50;36.80;;;;;;5031951;28;20923;-67
2022/04/29 06:40:52;;;;;;;4.40;2.35;;;23.50;36.50;;;;;;5043457;28;20444;-68
2022/04/29 06:43:19;;;;;;;4.53;2.72;;;23.50;36.30;;;;;;5041821;28;20481;-62
2022/04/29 06:45:45;;;;;;;5.03;2.53;;;23.50;36.20;;;;;;5052863;28;20801;-67
2022/04/29 06:48:10;;;;;;;5.20;2.60;;;23.50;36.60;;;;;;5040712;28;20431;-67
2022/04/29 06:50:36;;;;;;;4.83;2.70;;;23.50;35.90;;;;;;5040676;28;20473;-67
2022/04/29 06:53:02;;;;;;;5.15;2.70;;;23.50;36.00;;;;;;5032734;28;20399;-66
2022/04/29 06:55:28;;;;;;;4.77;2.70;;;23.60;35.80;;;;;;5047083;28;20404;-68
2022/04/29 06:57:53;;;;;;;3.80;2.53;;;23.60;35.90;;;;;;5052954;28;20390;-67
2022/04/29 07:00:19;;;;;;;4.33;2.57;;;23.60;35.90;;;;;;5052966;28;20425;-67
2022/04/29 07:02:46;;;;;;;3.45;2.53;;;23.60;35.90;;;;;;5052609;28;20386;-67
2022/04/29 07:05:12;;;;;;;3.50;2.20;;;23.60;35.50;;;;;;5052012;28;20401;-67
2022/04/29 07:07:38;;;;;;;6.13;2.65;;;23.60;36.10;;;;;;5053142;28;20386;-67
2022/04/29 07:10:05;;;;;;;5.45;2.50;;;23.70;36.50;;;;;;5052658;28;20417;-69
2022/04/29 07:12:33;;;;;;;5.03;2.77;;;23.70;36.20;;;;;;5053112;28;20403;-66
2022/04/29 07:14:59;;;;;;;5.10;2.60;;;23.70;36.30;;;;;;5052234;28;20385;-66
2022/04/29 07:17:25;;;;;;;5.70;2.58;;;23.70;36.30;;;;;;5052681;28;20385;-68
2022/04/29 07:19:52;;;;;;;7.50;2.80;;;23.60;36.40;;;;;;5052299;28;20491;-67
2022/04/29 07:22:18;;;;;;;7.82;2.50;;;23.60;36.70;;;;;;5053054;28;20378;-67
2022/04/29 07:24:45;;;;;;;6.25;2.72;;;23.60;36.80;;;;;;5053619;28;20417;-67
2022/04/29 07:27:12;;;;;;;4.80;2.50;;;23.60;36.80;;;;;;5053405;28;20388;-67
2022/04/29 07:29:38;;;;;;;5.90;2.72;;;23.60;36.20;;;;;;5047453;28;20813;-67
2022/04/29 07:32:04;;;;;;;10.80;3.07;;;23.70;36.40;;;;;;5042272;28;20396;-68
2022/04/29 07:42:42;;;;;;;9.93;3.00;;;23.80;38.50;;;;;;5032486;28;20387;-62
2022/04/29 07:45:08;;;;;;;8.83;2.60;;;23.70;37.60;;;;;;5031970;28;20402;-66
2022/04/29 07:47:36;;;;;;;6.47;2.90;;;23.70;37.40;;;;;;5052458;28;20388;-62
2022/04/29 07:50:03;;;;;;;7.40;3.00;;;23.70;36.80;;;;;;5033224;28;20387;-65
2022/04/29 07:52:28;;;;;;;7.00;3.05;;;23.60;36.60;;;;;;5031568;28;20408;-63
2022/04/29 07:54:54;;;;;;;7.83;2.80;;;23.60;36.10;;;;;;5031275;28;20482;-66
2022/04/29 07:57:20;;;;;;;6.50;2.93;;;23.60;36.40;;;;;;5031463;28;20469;-67
2022/04/29 07:59:45;;;;;;;6.50;3.00;;;23.60;36.20;;;;;;5031867;28;20454;-66
2022/04/29 08:02:11;;;;;;;6.20;2.67;;;23.60;36.00;;;;;;5031856;28;20637;-67
2022/04/29 08:04:36;;;;;;;7.07;3.00;;;23.60;35.90;;;;;;5047305;28;20417;-68
2022/04/29 08:07:02;;;;;;;6.43;2.70;;;23.70;35.90;;;;;;5031417;28;20746;-68
2022/04/29 08:09:28;;;;;;;5.30;2.60;;;23.70;36.20;;;;;;5031636;28;20879;-69
2022/04/29 08:11:54;;;;;;;7.97;2.75;;;23.70;35.80;;;;;;5031734;28;20383;-68
2022/04/29 08:14:20;;;;;;;4.43;2.50;;;23.70;35.50;;;;;;5031790;28;20423;-68
2022/04/29 08:16:46;;;;;;;6.03;2.63;;;23.70;34.80;;;;;;5030168;28;20455;-68
2022/04/29 08:19:12;;;;;;;6.40;2.80;;;23.80;35.10;;;;;;5031371;28;20455;-69
2022/04/29 08:21:37;;;;;;;5.78;2.83;;;23.90;35.50;;;;;;5031951;28;20387;-69
2022/04/29 08:24:03;;;;;;;5.60;2.60;;;23.90;36.70;;;;;;5030302;28;20395;-68
2022/04/29 08:26:29;;;;;;;5.00;2.70;;;23.90;36.50;;;;;;5031501;28;20449;-68
2022/04/29 08:28:55;;;;;;;5.23;2.77;;;23.90;36.10;;;;;;5030953;28;20864;-67
2022/04/29 08:31:21;;;;;;;4.93;2.75;;;24.00;35.90;;;;;;5031506;28;20387;-68
2022/04/29 08:33:47;;;;;;;6.63;2.80;;;24.10;39.20;;;;;;5031400;28;20418;-68
2022/04/29 08:36:13;;;;;;;10.85;3.30;;;24.20;38.00;;;;;;5031400;28;20815;-68
2022/04/29 08:38:38;;;;;;;5.67;2.80;;;24.20;38.00;;;;;;5046716;28;20487;-68
2022/04/29 08:41:06;;;;;;;7.18;3.22;;;24.20;37.70;;;;;;5030960;28;20399;-68
2022/04/29 08:43:33;;;;;;;5.78;2.70;;;24.30;37.00;;;;;;5031338;28;20383;-67
2022/04/29 08:46:00;;;;;;;6.32;2.83;;;24.30;36.40;;;;;;5030709;28;20405;-67
2022/04/29 08:48:28;;;;;;;5.25;2.70;;;24.30;35.80;;;;;;5041701;28;20476;-64
2022/04/29 08:50:56;;;;;;;4.38;2.80;;;24.30;35.30;;;;;;5050510;28;20401;-67
2022/04/29 08:53:22;;;;;;;6.28;2.70;;;24.30;34.50;;;;;;5050658;28;20390;-64
2022/04/29 08:58:37;;;;;;;7.22;2.83;;;24.30;34.60;;;;;;5050820;28;20432;-67
2022/04/29 09:01:21;;;;;;;5.32;2.72;;;24.40;34.80;;;;;;5042796;28;20406;-68
2022/04/29 09:03:47;;;;;;;8.95;2.70;;;24.40;35.00;;;;;;5030762;28;20419;-66
2022/04/29 09:06:17;;;;;;;5.53;2.75;;;24.50;34.90;;;;;;5031270;28;20434;-67
2022/04/29 09:08:46;;;;;;;5.38;2.58;;;24.60;35.10;;;;;;5048746;28;20853;-64
2022/04/29 09:11:26;;;;;;;7.57;2.80;;;24.60;35.20;;;;;;5054678;28;20410;-64
2022/04/29 09:13:53;;;;;;;5.35;2.50;;;24.70;35.60;;;;;;5056073;28;20382;-64
2022/04/29 09:16:19;;;;;;;6.72;2.58;;;24.80;35.40;;;;;;5054886;28;20746;-62
2022/04/29 09:18:55;;;;;;;5.90;2.70;;;24.80;35.30;;;;;;5044542;28;20401;-64
2022/04/29 09:21:25;;;;;;;5.75;2.72;;;24.90;35.40;;;;;;5051401;28;20397;-67
2022/04/29 09:23:57;;;;;;;5.38;2.80;;;24.90;35.30;;;;;;5046369;28;20399;-64
2022/04/29 09:26:27;;;;;;;3.58;2.60;;;25.00;35.30;;;;;;5043645;28;20414;-62
2022/04/29 09:28:54;;;;;;;6.05;2.40;;;25.00;35.10;;;;;;5052138;28;20404;-68
2022/04/29 09:31:20;;;;;;;6.43;2.53;;;25.10;35.00;;;;;;5043154;28;20937;-67
2022/04/29 09:33:56;;;;;;;4.85;2.50;;;25.20;35.00;;;;;;5050270;28;20531;-69
2022/04/29 09:36:24;;;;;;;4.70;2.50;;;25.20;34.80;;;;;;5041806;28;20459;-67
2022/04/29 09:41:52;;;;;;;4.40;2.58;;;25.30;34.90;;;;;;5043367;28;20748;-67
2022/04/29 09:44:32;;;;;;;4.80;2.50;;;25.40;34.90;;;;;;5043074;28;20863;-68
2022/04/29 09:47:15;;;;;;;3.70;2.50;;;25.40;34.70;;;;;;5041129;28;20395;-64
2022/04/29 09:49:52;;;;;;;4.40;2.47;;;25.50;34.70;;;;;;5045128;28;20500;-66
2022/04/29 09:52:19;;;;;;;4.45;2.40;;;25.50;34.40;;;;;;5044724;28;20417;-65
2022/04/29 09:54:45;;;;;;;3.25;2.30;;;25.50;34.40;;;;;;5043385;28;20888;-64
2022/04/29 09:57:15;;;;;;;4.00;2.43;;;25.50;34.40;;;;;;5044558;28;20473;-65
2022/04/29 09:59:46;;;;;;;3.50;2.47;;;25.50;34.20;;;;;;5045416;28;20423;-67
2022/04/29 10:02:26;;;;;;;4.03;2.10;;;25.50;34.20;;;;;;5042131;28;20754;-67
2022/04/29 10:04:53;;;;;;;5.53;2.17;;;25.50;34.40;;;;;;5042236;28;20409;-67
2022/04/29 10:07:21;;;;;;;4.72;2.00;;;25.50;34.30;;;;;;5042872;28;20753;-68
2022/04/29 10:09:52;;;;;;;5.30;2.22;;;25.50;33.60;;;;;;5041991;28;20463;-67
2022/04/29 10:12:26;;;;;;;6.75;2.10;;;25.60;33.10;;;;;;5044179;28;20395;-68
2022/04/29 10:14:56;;;;;;;3.93;2.10;;;25.70;32.50;;;;;;5044540;28;20455;-67
2022/04/29 10:23:11;;;;;;;4.30;2.20;;;25.90;32.00;;;;;;5033438;28;20560;-67
2022/04/29 10:25:42;;;;;;;5.25;2.42;;;25.90;32.30;;;;;;5033424;28;20391;-67
2022/04/29 10:28:09;;;;;;;4.00;2.30;;;26.00;32.90;;;;;;5033638;28;20435;-67
2022/04/29 10:30:37;;;;;;;4.07;2.20;;;26.20;32.80;;;;;;5033704;28;20398;-68
2022/04/29 10:33:04;;;;;;;3.90;2.35;;;26.30;32.90;;;;;;5032804;28;20888;-68
2022/04/29 10:35:39;;;;;;;5.00;2.40;;;26.40;32.40;;;;;;5033656;28;20520;-68
2022/04/29 10:38:14;;;;;;;4.97;2.33;;;26.50;33.00;;;;;;5033941;28;20383;-68
2022/04/29 10:40:40;;;;;;;5.07;2.43;;;26.50;32.50;;;;;;5033486;28;20522;-67
2022/04/29 10:43:07;;;;;;;3.47;2.22;;;26.50;32.70;;;;;;5050490;28;20892;-68
2022/04/29 10:45:34;;;;;;;5.47;2.40;;;26.50;32.50;;;;;;5053145;28;20381;-68
2022/04/29 10:48:29;;;;;;;4.07;2.47;;;26.50;32.40;;;;;;5052890;28;20451;-67
2022/04/29 10:50:54;;;;;;;5.65;2.30;;;26.50;31.50;;;;;;5041288;28;20429;-67
2022/04/29 10:53:22;;;;;;;3.83;2.10;;;26.50;32.20;;;;;;5038330;28;20902;-68
2022/04/29 10:55:52;;;;;;;4.10;2.30;;;26.50;33.90;;;;;;5033538;28;20398;-66
2022/04/29 10:58:22;;;;;;;3.53;2.28;;;26.50;33.40;;;;;;5040562;28;20925;-68
2022/04/29 11:01:16;;;;;;;5.57;2.53;;;26.60;33.80;;;;;;5042761;28;20474;-68
2022/04/29 11:03:45;;;;;;;5.32;2.50;;;26.70;33.50;;;;;;5042897;28;21114;-67
2022/04/29 11:06:14;;;;;;;3.38;2.50;;;26.80;33.60;;;;;;5040221;28;20486;-66
2022/04/29 11:08:41;;;;;;;3.00;2.30;;;26.80;33.30;;;;;;5041040;28;20426;-66
2022/04/29 11:11:09;;;;;;;3.40;2.30;;;26.80;33.60;;;;;;5039947;28;20414;-67
2022/04/29 11:13:39;;;;;;;4.45;2.30;;;26.80;33.70;;;;;;5041683;28;20417;-68
2022/04/29 11:16:13;;;;;;;2.70;2.00;;;26.90;34.10;;;;;;5040566;28;20395;-68
2022/04/29 11:18:41;;;;;;;4.93;2.30;;;27.10;33.70;;;;;;5041291;28;20485;-67
2022/04/29 11:26:46;;;;;;;3.35;2.10;;;27.10;34.60;;;;;;5052538;28;20392;-70
2022/04/29 11:29:12;;;;;;;3.80;1.90;;;27.00;34.30;;;;;;5051695;28;20747;-70
2022/04/29 11:31:39;;;;;;;4.27;2.10;;;27.00;34.40;;;;;;5051909;28;20970;-70
2022/04/29 11:34:13;;;;;;;2.90;1.83;;;26.90;34.50;;;;;;5051386;28;20476;-70
2022/04/29 11:36:40;;;;;;;4.97;2.10;;;26.90;34.40;;;;;;5052518;28;20386;-66
2022/04/29 11:39:14;;;;;;;2.37;1.90;;;26.80;34.40;;;;;;5051558;28;21006;-69
2022/04/29 11:41:55;;;;;;;4.87;2.00;;;26.80;34.10;;;;;;5051776;28;20396;-66
2022/04/29 11:44:42;;;;;;;4.47;2.10;;;26.80;34.90;;;;;;5052191;28;20374;-67
2022/04/29 11:47:08;;;;;;;4.35;2.00;;;26.70;34.30;;;;;;5053706;28;20413;-68
2022/04/29 11:49:34;;;;;;;4.47;2.00;;;26.70;34.20;;;;;;5061501;28;20393;-67
2022/04/29 11:52:25;;;;;;;3.95;2.10;;;26.70;34.20;;;;;;5052001;28;20813;-66
2022/04/29 11:54:59;;;;;;;2.33;1.80;;;26.70;33.90;;;;;;5051305;28;20394;-70
2022/04/29 11:57:27;;;;;;;3.42;2.00;;;26.70;33.80;;;;;;5053204;28;20374;-70
2022/04/29 11:59:53;;;;;;;4.82;1.73;;;26.70;33.70;;;;;;5053606;28;20413;-68
2022/04/29 12:02:21;;;;;;;5.97;2.00;;;26.60;33.80;;;;;;5053519;28;20408;-71
2022/04/29 12:05:05;;;;;;;7.13;1.98;;;26.60;34.20;;;;;;5052882;28;20401;-70
2022/04/29 12:07:45;;;;;;;3.27;1.83;;;26.60;34.50;;;;;;5052475;28;20471;-69
2022/04/29 12:10:18;;;;;;;4.40;2.15;;;26.60;35.10;;;;;;5053234;28;20405;-71
2022/04/29 12:12:47;;;;;;;3.83;1.90;;;26.60;35.40;;;;;;5046870;28;20401;-69
2022/04/29 12:15:17;;;;;;;5.05;1.98;;;26.60;35.20;;;;;;5032984;28;20910;-71
2022/04/29 12:17:43;;;;;;;2.85;1.80;;;26.60;35.20;;;;;;5032030;28;20395;-70
2022/04/29 12:20:15;;;;;;;4.68;2.00;;;26.60;35.20;;;;;;5038050;28;20491;-70
2022/04/29 12:22:41;;;;;;;3.63;1.80;;;26.60;35.50;;;;;;5041203;28;20439;-70
2022/04/29 12:25:27;;;;;;;4.30;1.90;;;26.60;35.10;;;;;;5042216;28;20481;-71
2022/04/29 12:28:10;;;;;;;3.05;1.88;;;26.50;34.90;;;;;;5042643;28;20390;-71
2022/04/29 12:36:49;;;;;;;2.75;1.80;;;26.60;34.20;;;;;;5043423;28;20388;-71
2022/04/29 12:39:21;;;;;;;7.95;2.08;;;26.60;34.00;;;;;;5050875;28;20924;-71
2022/04/29 12:42:00;;;;;;;6.15;2.00;;;26.40;33.70;;;;;;5049855;28;22289;-66
2022/04/29 12:47:24;;;;;;;8.40;2.00;;;26.40;34.40;;;;;;5031275;28;20391;-71
2022/04/29 12:49:53;;;;;;;6.25;2.00;;;26.30;34.60;;;;;;5031502;28;20491;-69
2022/04/29 12:52:19;;;;;;;6.60;2.15;;;26.30;34.30;;;;;;5031370;28;20379;-71
2022/04/29 12:54:45;;;;;;;4.90;2.10;;;26.30;33.40;;;;;;5031455;28;20410;-67
2022/04/29 12:57:10;;;;;;;4.32;2.10;;;26.30;33.30;;;;;;5030909;28;20441;-72
2022/04/29 12:59:37;;;;;;;3.88;2.13;;;26.40;33.00;;;;;;5031197;28;20477;-70
2022/04/29 13:02:07;;;;;;;8.23;2.20;;;26.40;33.00;;;;;;5062650;28;20729;-71
2022/04/29 13:04:33;;;;;;;4.50;2.00;;;26.30;33.40;;;;;;5030004;28;20922;-70
2022/04/29 13:07:02;;;;;;;3.80;2.15;;;26.40;33.60;;;;;;5031284;28;20391;-71
2022/04/29 13:09:28;;;;;;;5.15;2.30;;;26.40;33.60;;;;;;5030544;28;20949;-72
2022/04/29 13:11:53;;;;;;;4.35;2.00;;;26.40;33.80;;;;;;5031256;28;20478;-70
2022/04/29 13:14:19;;;;;;;3.13;1.90;;;26.40;33.80;;;;;;5031093;28;20383;-71
2022/04/29 13:16:45;;;;;;;2.90;1.88;;;26.40;33.90;;;;;;5030967;28;20902;-70
2022/04/29 13:19:11;;;;;;;4.32;2.00;;;26.40;33.90;;;;;;5030450;28;20469;-71
2022/04/29 13:21:37;;;;;;;5.18;2.08;;;26.40;33.90;;;;;;5029572;28;20756;-71
2022/04/29 13:24:03;;;;;;;3.13;1.80;;;26.40;33.70;;;;;;5038021;28;20408;-71
2022/04/29 13:26:29;;;;;;;3.63;1.90;;;26.40;33.60;;;;;;5048129;28;20404;-71
2022/04/29 13:28:55;;;;;;;3.03;2.07;;;26.40;33.60;;;;;;5049395;28;20393;-71
2022/04/29 13:31:21;;;;;;;2.40;1.90;;;26.40;33.50;;;;;;5050021;28;20386;-66